Time;durP1;ratioP1;P1;durP2;ratioP2;P2;SDS_P1;SDS_P2;PMS_P1;PMS_P2;Temp;Humidity;BMP_temperature;BMP_pressure;BME280_temperature;BME280_humidity;BME280_pressure;Samples;Min_cycle;Max_cycle;Signal;HPM_P1;HPM_P2
2022/09/27 00:01:12;;;;;;;1999.90;999.90;;;17.20;99.90;;;;;;5209805;28;20018;-85
2022/09/27 00:03:43;;;;;;;1999.90;999.90;;;17.30;99.90;;;;;;5208716;28;20579;-84
2022/09/27 00:06:26;;;;;;;1999.90;999.90;;;17.20;99.90;;;;;;5208499;28;20029;-85
2022/09/27 00:08:58;;;;;;;1999.90;999.90;;;17.20;99.90;;;;;;5209711;28;20033;-84
2022/09/27 00:11:38;;;;;;;1999.90;999.90;;;17.20;99.90;;;;;;5209683;28;20499;-84
2022/09/27 00:14:11;;;;;;;1999.90;999.90;;;17.10;99.90;;;;;;5209775;28;20377;-84
2022/09/27 00:16:43;;;;;;;1999.90;999.90;;;17.10;99.90;;;;;;5208037;28;20032;-84
2022/09/27 00:19:20;;;;;;;1999.90;999.90;;;17.10;99.90;;;;;;5212626;28;20033;-85
2022/09/27 00:21:51;;;;;;;1999.90;999.90;;;17.00;99.90;;;;;;5228774;28;20443;-84
2022/09/27 00:24:22;;;;;;;1999.90;999.90;;;17.10;99.90;;;;;;5228748;28;20032;-85
2022/09/27 00:26:53;;;;;;;1999.90;999.90;;;17.00;99.90;;;;;;5230246;28;20028;-84
2022/09/27 00:29:24;;;;;;;1999.90;999.90;;;17.10;99.90;;;;;;5229962;28;20060;-84
2022/09/27 00:31:55;;;;;;;1999.90;999.90;;;17.20;99.90;;;;;;5228543;28;20432;-84
2022/09/27 00:34:26;;;;;;;1999.90;999.90;;;17.10;99.90;;;;;;5230539;28;20025;-85
2022/09/27 00:36:57;;;;;;;1999.90;999.90;;;17.10;99.90;;;;;;5228256;28;20033;-85
2022/09/27 00:39:28;;;;;;;1999.90;999.90;;;17.00;99.90;;;;;;5228494;28;20029;-84
2022/09/27 00:41:58;;;;;;;1999.90;999.90;;;17.10;99.90;;;;;;5228249;28;20017;-84
2022/09/27 00:44:32;;;;;;;1999.90;999.90;;;17.10;99.90;;;;;;5229821;28;20066;-84
2022/09/27 00:47:27;;;;;;;1999.90;999.90;;;17.10;99.90;;;;;;5228492;28;20021;-85
2022/09/27 00:50:06;;;;;;;1999.90;999.90;;;17.20;99.90;;;;;;5227803;28;20095;-85
2022/09/27 00:52:51;;;;;;;1999.90;999.90;;;17.10;99.90;;;;;;5228152;28;20025;-84
2022/09/27 00:55:29;;;;;;;1999.90;999.90;;;17.10;99.90;;;;;;5228142;28;20598;-84
2022/09/27 00:58:01;;;;;;;1999.90;999.90;;;17.10;99.90;;;;;;5228166;28;20075;-84
2022/09/27 01:00:33;;;;;;;1999.90;999.90;;;17.00;99.90;;;;;;5228029;28;20025;-84
2022/09/27 01:03:06;;;;;;;1999.90;999.90;;;17.10;99.90;;;;;;5229229;28;20025;-84
2022/09/27 01:05:37;;;;;;;1999.90;999.90;;;17.10;99.90;;;;;;5228009;28;20032;-84
2022/09/27 01:08:08;;;;;;;1999.90;999.90;;;17.10;99.90;;;;;;5229210;28;20025;-84
2022/09/27 01:10:52;;;;;;;1999.90;999.90;;;17.10;99.90;;;;;;5228412;28;20062;-85
2022/09/27 01:13:39;;;;;;;1999.90;999.90;;;17.10;99.90;;;;;;5229394;28;20044;-84
2022/09/27 01:16:55;;;;;;;1999.90;999.90;;;17.10;99.90;;;;;;5229152;28;20033;-84
2022/09/27 01:19:57;;;;;;;1999.90;999.90;;;17.10;99.90;;;;;;5220476;28;20052;-85
2022/09/27 01:22:44;;;;;;;1999.90;999.90;;;17.00;99.90;;;;;;5229012;28;20028;-84
2022/09/27 01:25:39;;;;;;;1999.90;999.90;;;17.00;99.90;;;;;;5227691;28;20484;-84
2022/09/27 01:28:10;;;;;;;1999.90;999.90;;;17.00;99.90;;;;;;5227504;28;20061;-84
2022/09/27 01:30:49;;;;;;;1999.90;999.90;;;17.10;99.90;;;;;;5227441;28;20110;-85
2022/09/27 01:33:43;;;;;;;1999.90;999.90;;;17.00;99.90;;;;;;5228793;28;20025;-84
2022/09/27 01:36:20;;;;;;;1999.90;999.90;;;17.00;99.90;;;;;;5229209;28;20025;-84
2022/09/27 01:39:09;;;;;;;1999.90;999.90;;;17.00;99.90;;;;;;5227391;28;20116;-84
2022/09/27 01:42:01;;;;;;;1999.90;999.90;;;17.10;99.90;;;;;;5228691;28;20112;-84
2022/09/27 01:44:57;;;;;;;1999.90;999.90;;;17.10;99.90;;;;;;5227329;28;20499;-85
2022/09/27 01:47:56;;;;;;;1999.90;999.90;;;17.20;99.90;;;;;;5228715;28;20353;-84
2022/09/27 01:50:26;;;;;;;1999.90;999.90;;;17.20;99.90;;;;;;5224685;28;20053;-84
2022/09/27 01:53:08;;;;;;;1999.90;999.90;;;17.10;99.90;;;;;;5228587;28;20032;-84
2022/09/27 01:55:39;;;;;;;1999.90;999.90;;;17.10;99.90;;;;;;5227278;28;20029;-85
2022/09/27 01:58:39;;;;;;;1999.90;999.90;;;17.20;99.90;;;;;;5227866;28;20106;-85
2022/09/27 02:01:13;;;;;;;1999.90;999.90;;;17.10;99.90;;;;;;5199046;28;20044;-85
2022/09/27 02:03:48;;;;;;;1999.90;999.90;;;17.00;99.90;;;;;;5228054;28;20037;-84
2022/09/27 02:06:25;;;;;;;1999.90;999.90;;;17.00;99.90;;;;;;5226862;28;20029;-84
2022/09/27 02:09:10;;;;;;;1999.90;999.90;;;16.90;99.90;;;;;;5228075;28;20032;-84
2022/09/27 02:11:55;;;;;;;1999.90;999.90;;;17.00;99.90;;;;;;5226698;28;20036;-84
2022/09/27 02:14:44;;;;;;;1999.90;999.90;;;17.00;99.90;;;;;;5228447;28;20056;-85
2022/09/27 02:17:43;;;;;;;1999.90;999.90;;;17.00;99.90;;;;;;5228069;28;20500;-85
2022/09/27 02:20:41;;;;;;;1999.90;999.90;;;17.00;99.90;;;;;;5227015;28;20059;-84
2022/09/27 02:23:28;;;;;;;1999.90;999.90;;;17.00;99.90;;;;;;5222241;28;20550;-85
2022/09/27 02:26:09;;;;;;;1999.90;999.90;;;17.00;99.90;;;;;;5226566;28;20025;-85
2022/09/27 02:28:45;;;;;;;1999.90;999.90;;;17.00;99.90;;;;;;5227813;28;20029;-85
2022/09/27 02:31:16;;;;;;;1999.90;999.90;;;17.00;99.90;;;;;;5228035;28;20033;-84
2022/09/27 02:33:59;;;;;;;1999.90;999.90;;;17.10;99.90;;;;;;5226950;28;20519;-85
2022/09/27 02:36:31;;;;;;;1999.90;999.90;;;17.20;99.90;;;;;;5226569;28;20025;-85
2022/09/27 02:39:02;;;;;;;1999.90;999.90;;;17.20;99.90;;;;;;5226424;28;20025;-85
2022/09/27 02:41:33;;;;;;;1999.90;999.90;;;17.20;99.90;;;;;;5227716;28;20044;-85
2022/09/27 02:44:09;;;;;;;1999.90;999.90;;;17.20;99.90;;;;;;5227627;28;20055;-85
2022/09/27 02:47:02;;;;;;;1999.90;999.90;;;17.20;99.90;;;;;;5227917;28;20029;-85
2022/09/27 02:49:45;;;;;;;1999.90;999.90;;;17.20;99.90;;;;;;5227607;28;20052;-84
2022/09/27 02:52:37;;;;;;;1999.90;999.90;;;17.20;99.90;;;;;;5225942;28;20140;-84
2022/09/27 02:55:20;;;;;;;1999.90;999.90;;;17.20;99.90;;;;;;5224570;28;20041;-85
2022/09/27 02:58:22;;;;;;;1999.90;999.90;;;17.20;99.90;;;;;;5226236;28;20025;-86
2022/09/27 03:01:01;;;;;;;1999.90;999.90;;;17.20;99.90;;;;;;5227864;28;20088;-85
2022/09/27 03:03:39;;;;;;;1999.90;999.90;;;17.30;99.90;;;;;;5226455;28;20464;-85
2022/09/27 03:06:12;;;;;;;1999.90;999.90;;;17.30;99.90;;;;;;5227682;28;20025;-86
2022/09/27 03:08:44;;;;;;;1999.90;999.90;;;17.30;99.90;;;;;;5227534;28;20032;-84
2022/09/27 03:11:15;;;;;;;1999.90;999.90;;;17.30;99.90;;;;;;5227487;28;20064;-84
2022/09/27 03:13:46;;;;;;;1999.90;999.90;;;17.30;99.90;;;;;;5226276;28;20021;-85
2022/09/27 03:16:17;;;;;;;1999.90;999.90;;;17.30;99.90;;;;;;5227035;28;20033;-85
2022/09/27 03:18:48;;;;;;;1999.90;999.90;;;17.10;99.90;;;;;;5227253;28;20396;-85
2022/09/27 03:21:18;;;;;;;1999.90;999.90;;;17.30;99.90;;;;;;5226154;28;20065;-86
2022/09/27 03:23:49;;;;;;;1999.90;999.90;;;17.30;99.90;;;;;;5227255;28;20070;-84
2022/09/27 03:26:20;;;;;;;1999.90;999.90;;;17.20;99.90;;;;;;5227671;28;20104;-86
2022/09/27 03:28:51;;;;;;;1999.90;999.90;;;17.30;99.90;;;;;;5225743;28;20017;-85
2022/09/27 03:31:21;;;;;;;1999.90;999.90;;;17.30;99.90;;;;;;5226235;28;20488;-85
2022/09/27 03:33:52;;;;;;;1999.90;999.90;;;17.40;99.90;;;;;;5229189;28;20027;-85
2022/09/27 03:36:23;;;;;;;1999.90;999.90;;;17.30;99.90;;;;;;5230805;28;20488;-85
2022/09/27 03:38:54;;;;;;;1999.90;999.90;;;17.40;99.90;;;;;;5229440;28;20021;-85
2022/09/27 03:41:25;;;;;;;1999.90;999.90;;;17.40;99.90;;;;;;5229778;28;20163;-86
2022/09/27 03:43:56;;;;;;;1999.90;999.90;;;17.20;99.90;;;;;;5229884;28;20032;-86
2022/09/27 03:46:27;;;;;;;1999.90;999.90;;;17.40;99.90;;;;;;5231379;28;20025;-86
2022/09/27 03:48:58;;;;;;;1999.90;999.90;;;17.30;99.90;;;;;;5229293;28;20025;-84
2022/09/27 03:51:30;;;;;;;1999.90;999.90;;;17.50;99.90;;;;;;5230881;28;20040;-85
2022/09/27 03:54:01;;;;;;;1999.90;999.90;;;17.50;99.90;;;;;;5229643;28;20025;-85
2022/09/27 03:56:32;;;;;;;1999.90;999.90;;;17.50;99.90;;;;;;5229537;28;20029;-85
2022/09/27 03:59:03;;;;;;;1999.90;999.90;;;17.60;99.90;;;;;;5229452;28;20047;-84
2022/09/27 04:01:36;;;;;;;1999.90;999.90;;;17.60;99.90;;;;;;5229700;28;20025;-85
2022/09/27 04:04:07;;;;;;;1999.90;999.90;;;17.50;99.90;;;;;;5229267;28;20033;-86
2022/09/27 04:06:38;;;;;;;1999.90;999.90;;;17.60;99.90;;;;;;5230620;28;20021;-85
2022/09/27 04:09:08;;;;;;;1999.90;999.90;;;17.60;99.90;;;;;;5230218;28;20361;-86
2022/09/27 04:11:39;;;;;;;1999.90;999.90;;;17.50;99.90;;;;;;5230633;28;20037;-85
2022/09/27 04:14:11;;;;;;;1999.90;999.90;;;17.50;99.90;;;;;;5229388;28;20542;-86
2022/09/27 04:16:42;;;;;;;1999.90;999.90;;;17.50;99.90;;;;;;5230834;28;20449;-84
2022/09/27 04:19:13;;;;;;;1999.90;999.90;;;17.60;99.90;;;;;;5228767;28;20052;-85
2022/09/27 04:21:44;;;;;;;1999.90;999.90;;;17.60;99.90;;;;;;5228842;28;20032;-85
2022/09/27 04:24:15;;;;;;;1999.90;999.90;;;17.60;99.90;;;;;;5230375;28;20377;-85
2022/09/27 04:26:48;;;;;;;1999.90;999.90;;;17.60;99.90;;;;;;5230879;28;20033;-86
2022/09/27 04:29:18;;;;;;;1999.90;999.90;;;17.70;99.90;;;;;;5230175;28;20419;-86
2022/09/27 04:31:49;;;;;;;1999.90;999.90;;;17.60;99.90;;;;;;5230010;28;20033;-84
2022/09/27 04:36:25;;;;;;;1999.90;999.90;;;17.60;99.90;;;;;;5230024;28;20023;-86
2022/09/27 04:37:11;;;;;;;1999.90;999.90;;;17.60;99.90;;;;;;5229938;28;20472;-86
2022/09/27 04:39:42;;;;;;;1999.90;999.90;;;17.60;99.90;;;;;;5228580;28;20045;-87
2022/09/27 04:42:13;;;;;;;1999.90;999.90;;;17.60;99.90;;;;;;5229694;28;20021;-85
2022/09/27 04:44:44;;;;;;;1999.90;999.90;;;17.80;99.90;;;;;;5228267;28;20037;-86
2022/09/27 04:47:16;;;;;;;1999.90;999.90;;;17.80;99.90;;;;;;5228333;28;20024;-85
2022/09/27 04:49:48;;;;;;;1999.90;999.90;;;17.80;99.90;;;;;;5227847;28;20048;-85
2022/09/27 04:52:19;;;;;;;1999.90;999.90;;;17.80;99.90;;;;;;5228468;28;20396;-86
2022/09/27 04:54:50;;;;;;;1999.90;999.90;;;17.90;99.90;;;;;;5227943;28;20021;-85
2022/09/27 04:57:21;;;;;;;1999.90;999.90;;;17.90;99.90;;;;;;5228277;28;20029;-86
2022/09/27 04:59:52;;;;;;;1999.90;999.90;;;17.90;99.90;;;;;;5227824;28;20028;-84
2022/09/27 05:02:22;;;;;;;1999.90;999.90;;;17.90;99.90;;;;;;5227605;28;20036;-85
2022/09/27 05:04:56;;;;;;;1999.90;999.90;;;18.00;99.90;;;;;;5228084;28;20033;-86
2022/09/27 05:07:28;;;;;;;1999.90;999.90;;;18.10;99.90;;;;;;5228234;28;20132;-86
2022/09/27 05:09:58;;;;;;;1999.90;999.90;;;18.10;99.90;;;;;;5229288;28;20040;-85
2022/09/27 05:12:30;;;;;;;1999.90;999.90;;;18.20;99.90;;;;;;5229289;28;20028;-86
2022/09/27 05:15:02;;;;;;;1999.90;999.90;;;18.40;99.90;;;;;;5229151;28;20025;-86
2022/09/27 05:17:32;;;;;;;1999.90;999.90;;;18.30;99.90;;;;;;5227904;28;20025;-86
2022/09/27 05:20:04;;;;;;;1999.90;999.90;;;18.30;99.90;;;;;;5227734;28;20040;-86
2022/09/27 05:22:35;;;;;;;1999.90;999.90;;;18.30;99.90;;;;;;5228303;28;20036;-85
2022/09/27 05:25:06;;;;;;;1999.90;999.90;;;18.30;99.90;;;;;;5228888;28;20036;-86
2022/09/27 05:27:37;;;;;;;1999.90;999.90;;;18.40;99.90;;;;;;5227535;28;20029;-85
2022/09/27 05:30:08;;;;;;;1999.90;999.90;;;18.40;99.90;;;;;;5228750;28;20033;-86
2022/09/27 05:32:42;;;;;;;1999.90;999.90;;;18.50;99.90;;;;;;5228722;28;20040;-85
2022/09/27 05:35:13;;;;;;;1999.90;999.90;;;18.50;99.90;;;;;;5228746;28;20194;-86
2022/09/27 05:37:52;;;;;;;1999.90;999.90;;;18.60;99.90;;;;;;5229096;28;20422;-85
2022/09/27 05:40:24;;;;;;;1999.90;999.90;;;18.50;99.90;;;;;;5228646;28;20029;-86
2022/09/27 05:42:55;;;;;;;1999.90;999.90;;;18.70;99.90;;;;;;5228545;28;20028;-85
2022/09/27 05:45:26;;;;;;;1999.90;999.90;;;18.60;99.90;;;;;;5228768;28;20035;-86
2022/09/27 05:47:58;;;;;;;1999.90;999.90;;;18.50;99.90;;;;;;5227195;28;20111;-85
2022/09/27 05:50:28;;;;;;;1999.90;999.90;;;18.50;99.90;;;;;;5227904;28;20037;-85
2022/09/27 05:52:59;;;;;;;1999.90;999.90;;;18.50;99.90;;;;;;5228279;28;20029;-86
2022/09/27 05:55:30;;;;;;;1999.90;999.90;;;18.50;99.90;;;;;;5226958;28;20071;-85
2022/09/27 05:58:06;;;;;;;1999.90;999.90;;;18.50;99.90;;;;;;5226565;28;20417;-85
2022/09/27 06:00:38;;;;;;;1999.90;999.90;;;18.50;99.90;;;;;;5227961;28;20157;-86
2022/09/27 06:03:11;;;;;;;1999.90;999.90;;;18.40;99.90;;;;;;5228217;28;20032;-85
2022/09/27 06:05:42;;;;;;;1999.90;999.90;;;18.50;99.90;;;;;;5226999;28;20029;-86
2022/09/27 06:08:13;;;;;;;1999.90;999.90;;;18.50;99.90;;;;;;5226488;28;20031;-86
2022/09/27 06:10:44;;;;;;;1999.90;999.90;;;18.60;99.90;;;;;;5226817;28;20044;-87
2022/09/27 06:13:17;;;;;;;1999.90;999.90;;;18.70;99.90;;;;;;5228036;28;20051;-86
2022/09/27 06:15:49;;;;;;;1999.90;999.90;;;18.70;99.90;;;;;;5226662;28;20044;-86
2022/09/27 06:18:20;;;;;;;1999.90;999.90;;;18.70;99.90;;;;;;5227959;28;20044;-86
2022/09/27 06:20:51;;;;;;;1999.90;999.90;;;18.70;99.90;;;;;;5226751;28;20037;-86
2022/09/27 06:23:22;;;;;;;1999.90;999.90;;;18.80;99.90;;;;;;5227761;28;20111;-87
2022/09/27 06:25:54;;;;;;;1999.90;999.90;;;18.80;99.90;;;;;;5227590;28;20024;-86
2022/09/27 06:28:25;;;;;;;1999.90;999.90;;;18.80;99.90;;;;;;5226583;28;20380;-87
2022/09/27 06:30:59;;;;;;;1999.90;999.90;;;18.80;99.90;;;;;;5226731;28;20087;-86
2022/09/27 06:33:31;;;;;;;1999.90;999.90;;;18.80;99.90;;;;;;5228124;28;20017;-86
2022/09/27 06:36:04;;;;;;;1999.90;999.90;;;18.90;99.90;;;;;;5226107;28;20480;-87
2022/09/27 06:38:35;;;;;;;1999.90;999.90;;;19.00;99.90;;;;;;5227650;28;20373;-87
2022/09/27 06:41:08;;;;;;;1999.90;999.90;;;19.10;99.90;;;;;;5227667;28;20025;-86
2022/09/27 06:43:38;;;;;;;1999.90;999.90;;;19.20;99.90;;;;;;5226365;28;20021;-86
2022/09/27 06:46:09;;;;;;;1999.90;999.90;;;19.20;99.90;;;;;;5227701;28;20029;-87
2022/09/27 06:48:40;;;;;;;1999.90;999.90;;;19.30;99.90;;;;;;5227640;28;20104;-86
2022/09/27 06:51:11;;;;;;;1999.90;999.90;;;19.50;99.90;;;;;;5226412;28;20052;-86
2022/09/27 06:53:42;;;;;;;1999.90;999.90;;;19.50;99.90;;;;;;5227341;28;20025;-85
2022/09/27 06:56:13;;;;;;;1999.90;999.90;;;19.60;99.90;;;;;;5227605;28;20029;-86
2022/09/27 07:01:34;;;;;;;1999.90;999.90;;;19.80;99.90;;;;;;5227787;28;20044;-86
2022/09/27 07:04:06;;;;;;;1999.90;999.90;;;19.80;99.90;;;;;;5227702;28;20098;-87
2022/09/27 07:06:37;;;;;;;1999.90;999.90;;;19.90;99.90;;;;;;5227396;28;20025;-86
2022/09/27 07:09:08;;;;;;;1999.90;999.90;;;20.00;99.90;;;;;;5231534;28;20075;-86
2022/09/27 07:11:39;;;;;;;1999.90;999.90;;;20.00;99.90;;;;;;5231730;28;20041;-86
2022/09/27 07:14:10;;;;;;;1999.90;999.90;;;20.00;99.90;;;;;;5231442;28;20025;-85
2022/09/27 07:16:42;;;;;;;1999.90;999.90;;;20.10;99.90;;;;;;5231363;28;20745;-86
2022/09/27 07:19:14;;;;;;;1999.90;999.90;;;20.10;99.90;;;;;;5229943;28;20037;-85
2022/09/27 07:21:44;;;;;;;1999.90;999.90;;;20.00;99.90;;;;;;5229998;28;20121;-87
2022/09/27 07:24:15;;;;;;;1999.90;999.90;;;20.10;99.90;;;;;;5230023;28;20187;-86
2022/09/27 07:26:47;;;;;;;1999.90;999.90;;;20.10;99.90;;;;;;5231510;28;20021;-87
2022/09/27 07:29:17;;;;;;;1999.90;999.90;;;20.00;99.90;;;;;;5229964;28;20477;-86
2022/09/27 07:31:48;;;;;;;1999.90;999.90;;;20.20;99.90;;;;;;5231116;28;20079;-85
2022/09/27 07:34:19;;;;;;;1999.90;999.90;;;20.30;99.90;;;;;;5231190;28;20021;-86
2022/09/27 07:36:50;;;;;;;1999.90;999.90;;;20.50;99.90;;;;;;5231568;28;20104;-86
2022/09/27 07:39:21;;;;;;;1999.90;999.90;;;20.30;99.90;;;;;;5229923;28;20388;-86
2022/09/27 07:41:52;;;;;;;1999.90;999.90;;;20.20;99.90;;;;;;5230904;28;20058;-86
2022/09/27 07:44:24;;;;;;;1999.90;999.90;;;20.30;99.90;;;;;;5230899;28;20091;-86
2022/09/27 07:46:54;;;;;;;1999.90;999.90;;;20.40;99.90;;;;;;5230830;28;20052;-87
2022/09/27 07:49:25;;;;;;;1999.90;999.90;;;20.50;99.90;;;;;;5230558;28;20090;-85
2022/09/27 07:51:56;;;;;;;1999.90;999.90;;;20.40;99.90;;;;;;5231378;28;20033;-85
2022/09/27 07:54:27;;;;;;;1999.90;999.90;;;20.30;99.90;;;;;;5231066;28;20025;-86
2022/09/27 07:56:58;;;;;;;1999.90;999.90;;;20.50;99.90;;;;;;5230864;28;20025;-86
2022/09/27 07:59:29;;;;;;;1999.90;999.90;;;20.30;99.90;;;;;;5230642;28;20465;-86
2022/09/27 08:01:59;;;;;;;1999.90;999.90;;;20.70;99.90;;;;;;5229273;28;20017;-86
2022/09/27 08:04:30;;;;;;;1999.90;999.90;;;20.60;99.90;;;;;;5230602;28;20032;-86
2022/09/27 08:07:01;;;;;;;1999.90;999.90;;;20.70;99.90;;;;;;5229096;28;20017;-87
2022/09/27 08:09:32;;;;;;;1999.90;999.90;;;20.80;99.90;;;;;;5230089;28;20094;-86
2022/09/27 08:12:03;;;;;;;1999.90;999.90;;;21.10;99.90;;;;;;5229015;28;20060;-86
2022/09/27 08:14:34;;;;;;;1999.90;999.90;;;21.00;99.90;;;;;;5230577;28;20114;-86
2022/09/27 08:17:05;;;;;;;1999.90;999.90;;;21.20;99.90;;;;;;5230313;28;20432;-87
2022/09/27 08:19:36;;;;;;;1999.90;999.90;;;21.20;99.90;;;;;;5229607;28;20487;-87
2022/09/27 08:22:07;;;;;;;1999.90;999.90;;;21.30;99.90;;;;;;5230338;28;20029;-86
2022/09/27 08:24:38;;;;;;;1999.90;999.90;;;21.20;99.90;;;;;;5230218;28;20435;-85
2022/09/27 08:27:09;;;;;;;1999.90;999.90;;;21.30;99.90;;;;;;5229694;28;20037;-86
2022/09/27 08:29:40;;;;;;;1999.90;999.90;;;21.40;99.90;;;;;;5228784;28;20032;-87
2022/09/27 08:32:11;;;;;;;1999.90;999.90;;;21.60;99.90;;;;;;5229943;28;20396;-86
2022/09/27 08:34:42;;;;;;;1999.90;999.90;;;21.30;99.90;;;;;;5229715;28;20029;-87
2022/09/27 08:37:13;;;;;;;1999.90;999.90;;;21.30;99.90;;;;;;5228677;28;20472;-86
2022/09/27 08:39:44;;;;;;;1999.90;999.90;;;21.30;99.90;;;;;;5228568;28;20075;-86
2022/09/27 08:42:27;;;;;;;1999.90;999.90;;;21.30;99.90;;;;;;5229766;28;20025;-85
2022/09/27 08:45:04;;;;;;;1999.90;999.90;;;21.50;99.90;;;;;;5230039;28;20041;-85
2022/09/27 08:48:01;;;;;;;1999.90;999.90;;;21.50;99.90;;;;;;5229557;28;20473;-85
2022/09/27 08:50:40;;;;;;;1999.90;999.90;;;21.60;99.90;;;;;;5223631;28;20072;-86
2022/09/27 08:53:14;;;;;;;1999.90;999.90;;;21.50;99.90;;;;;;5229624;28;20033;-86
2022/09/27 08:55:57;;;;;;;1999.90;999.90;;;21.60;99.90;;;;;;5229835;28;20060;-86
2022/09/27 08:58:27;;;;;;;1999.90;999.90;;;21.40;99.90;;;;;;5228403;28;20029;-85
2022/09/27 09:01:10;;;;;;;1999.90;999.90;;;21.50;99.90;;;;;;5226425;28;20078;-86
2022/09/27 09:03:54;;;;;;;1999.90;999.90;;;21.30;99.90;;;;;;5229308;28;20025;-86
2022/09/27 09:06:27;;;;;;;1999.90;999.90;;;21.50;99.90;;;;;;5229510;28;20587;-86
2022/09/27 09:09:04;;;;;;;1999.90;999.90;;;21.60;99.90;;;;;;5229230;28;20036;-85
2022/09/27 09:14:36;;;;;;;1999.90;999.90;;;21.50;99.90;;;;;;5229490;28;20044;-86
2022/09/27 09:17:16;;;;;;;1999.90;999.90;;;21.40;99.90;;;;;;5228902;28;20032;-87
2022/09/27 09:20:17;;;;;;;1999.90;999.90;;;21.50;99.90;;;;;;5227628;28;20467;-86
2022/09/27 09:23:05;;;;;;;1999.90;999.90;;;21.50;99.90;;;;;;5226993;28;20037;-86
2022/09/27 09:25:58;;;;;;;1999.90;999.90;;;21.50;99.90;;;;;;5229277;28;20049;-86
2022/09/27 09:28:57;;;;;;;1999.90;999.90;;;21.60;99.90;;;;;;5227582;28;20473;-85
2022/09/27 09:31:40;;;;;;;1999.90;999.90;;;21.40;99.90;;;;;;5227645;28;20120;-85
2022/09/27 09:34:21;;;;;;;1999.90;999.90;;;21.40;99.90;;;;;;5227749;28;20064;-85
2022/09/27 09:36:56;;;;;;;1999.90;999.90;;;21.60;99.90;;;;;;5227232;28;20021;-85
2022/09/27 09:39:55;;;;;;;1999.90;999.90;;;21.40;99.90;;;;;;5229034;28;20519;-86
2022/09/27 09:42:34;;;;;;;1999.90;999.90;;;21.30;99.90;;;;;;5228672;28;20100;-85
2022/09/27 09:45:24;;;;;;;1999.90;999.90;;;21.60;99.90;;;;;;5227317;28;20190;-85
2022/09/27 09:48:40;;;;;;;1999.90;999.90;;;21.60;99.90;;;;;;5227137;28;20036;-85
2022/09/27 09:51:26;;;;;;;1999.90;999.90;;;21.50;99.90;;;;;;5185204;28;20065;-86
2022/09/27 09:54:21;;;;;;;1999.90;999.90;;;21.50;99.90;;;;;;5229020;28;20497;-85
2022/09/27 09:57:07;;;;;;;1999.90;999.90;;;21.90;99.90;;;;;;5228599;28;20384;-86
2022/09/27 09:59:44;;;;;;;1999.90;999.90;;;21.90;99.90;;;;;;5228892;28;20036;-86
2022/09/27 10:02:39;;;;;;;1999.90;999.90;;;22.10;99.90;;;;;;5228208;28;20118;-86
2022/09/27 10:05:18;;;;;;;1999.90;999.90;;;22.20;99.90;;;;;;5227012;28;20025;-85
2022/09/27 10:07:51;;;;;;;1999.90;999.90;;;22.40;99.90;;;;;;5226953;28;20033;-86
2022/09/27 10:10:22;;;;;;;1999.90;999.90;;;22.50;99.90;;;;;;5228323;28;20361;-85
2022/09/27 10:12:55;;;;;;;1999.90;999.90;;;22.60;99.90;;;;;;5228049;28;20021;-86
2022/09/27 10:15:29;;;;;;;1999.90;999.90;;;22.40;99.90;;;;;;5228069;28;20021;-86
2022/09/27 10:18:00;;;;;;;1999.90;999.90;;;22.50;99.90;;;;;;5227555;28;20036;-85
2022/09/27 10:20:38;;;;;;;1999.90;999.90;;;22.70;99.90;;;;;;5227864;28;20040;-86
2022/09/27 10:23:15;;;;;;;1999.90;999.90;;;22.60;99.90;;;;;;5228025;28;20029;-85
2022/09/27 10:25:49;;;;;;;1999.90;999.90;;;22.50;99.90;;;;;;5226514;28;20029;-85
2022/09/27 10:28:32;;;;;;;1999.90;999.90;;;22.50;99.90;;;;;;5227920;28;20021;-86
2022/09/27 10:31:22;;;;;;;1999.90;999.90;;;22.80;99.90;;;;;;5226477;28;20033;-86
2022/09/27 10:33:58;;;;;;;1999.90;999.90;;;22.80;99.90;;;;;;5226700;28;20040;-86
2022/09/27 10:36:32;;;;;;;1999.90;999.90;;;23.10;99.90;;;;;;5227851;28;20078;-85
2022/09/27 10:39:05;;;;;;;1999.90;999.90;;;22.90;99.90;;;;;;5226431;28;20174;-84
2022/09/27 10:41:41;;;;;;;1999.90;999.90;;;22.90;99.10;;;;;;5227551;28;20052;-85
2022/09/27 10:44:14;;;;;;;1999.90;999.90;;;23.20;99.40;;;;;;5226419;28;20465;-85
2022/09/27 10:47:08;;;;;;;1999.90;999.90;;;23.20;98.70;;;;;;5228181;28;20468;-84
2022/09/27 10:49:42;;;;;;;1999.90;999.90;;;23.20;99.90;;;;;;5226095;28;20033;-86
2022/09/27 10:52:23;;;;;;;1999.90;999.90;;;23.30;99.90;;;;;;5226221;28;20048;-85
2022/09/27 10:54:57;;;;;;;1999.90;999.90;;;23.30;99.90;;;;;;5226371;28;20029;-85
2022/09/27 10:57:29;;;;;;;1999.90;999.90;;;23.30;99.90;;;;;;5227764;28;20029;-86
2022/09/27 11:00:18;;;;;;;1999.90;999.90;;;23.20;99.90;;;;;;5226197;28;20033;-85
2022/09/27 11:02:54;;;;;;;1999.90;999.90;;;23.20;99.90;;;;;;5227873;28;20056;-86
2022/09/27 11:05:26;;;;;;;1999.90;999.90;;;23.00;99.90;;;;;;5227536;28;20053;-85
2022/09/27 11:08:01;;;;;;;1999.90;999.90;;;22.80;99.90;;;;;;5227392;28;20056;-86
2022/09/27 11:10:35;;;;;;;1999.90;999.90;;;22.90;99.90;;;;;;5228026;28;20415;-85
2022/09/27 11:13:18;;;;;;;1999.90;999.90;;;22.90;99.90;;;;;;5227653;28;20025;-85
2022/09/27 11:15:55;;;;;;;1999.90;999.90;;;22.70;99.90;;;;;;5226108;28;20025;-84
2022/09/27 11:18:34;;;;;;;1999.90;999.90;;;22.70;99.90;;;;;;5225939;28;20032;-85
2022/09/27 11:21:33;;;;;;;1999.90;999.90;;;22.70;99.90;;;;;;5227232;28;20054;-86
2022/09/27 11:24:23;;;;;;;1999.90;999.90;;;22.80;99.90;;;;;;5226066;28;20271;-86
2022/09/27 11:27:28;;;;;;;1999.90;999.90;;;22.70;99.90;;;;;;5227459;28;20362;-82
2022/09/27 11:30:04;;;;;;;1999.90;999.90;;;22.70;99.90;;;;;;5227578;28;20017;-85
2022/09/27 11:33:30;;;;;;;1999.90;999.90;;;22.60;99.90;;;;;;5227109;28;20037;-86
2022/09/27 11:36:19;;;;;;;1999.90;999.90;;;22.50;99.90;;;;;;5225281;28;20048;-86
2022/09/27 11:39:15;;;;;;;1999.90;999.90;;;22.40;99.90;;;;;;5227126;28;20021;-85
2022/09/27 11:42:15;;;;;;;1999.90;999.90;;;22.60;99.90;;;;;;5227138;28;20381;-85
2022/09/27 11:45:09;;;;;;;;;;;22.50;99.90;;;;;;5226264;28;20033;-86
2022/09/27 11:48:14;;;;;;;1999.90;999.90;;;22.50;99.90;;;;;;5216321;28;19905;-85
2022/09/27 11:51:01;;;;;;;1999.90;999.90;;;22.30;99.90;;;;;;5226895;28;20049;-85
2022/09/27 11:54:05;;;;;;;1999.90;999.90;;;22.20;99.90;;;;;;5225895;28;20493;-86
2022/09/27 11:56:36;;;;;;;1999.90;999.90;;;22.20;99.90;;;;;;5231069;28;20021;-85
2022/09/27 11:59:28;;;;;;;1999.90;999.90;;;22.20;99.90;;;;;;5230886;28;20421;-85
2022/09/27 12:02:04;;;;;;;1999.90;999.90;;;22.10;99.90;;;;;;5229203;28;20108;-86
2022/09/27 12:04:50;;;;;;;1999.90;999.90;;;22.20;99.90;;;;;;5229095;28;20484;-85
2022/09/27 12:07:47;;;;;;;1999.90;999.90;;;22.10;99.90;;;;;;5228934;28;20425;-86
2022/09/27 12:10:20;;;;;;;1999.90;999.90;;;22.20;99.90;;;;;;5226720;28;20082;-87
2022/09/27 12:12:55;;;;;;;1999.90;999.90;;;22.50;99.90;;;;;;5230321;28;20021;-86
2022/09/27 12:15:30;;;;;;;1999.90;999.90;;;22.40;99.90;;;;;;5230444;28;20052;-87
2022/09/27 12:18:25;;;;;;;1999.90;999.90;;;22.40;99.90;;;;;;5230304;28;20060;-86
2022/09/27 12:20:58;;;;;;;1999.90;999.90;;;22.70;99.90;;;;;;5230091;28;20108;-84
2022/09/27 12:23:40;;;;;;;1999.90;999.90;;;22.80;99.90;;;;;;5230136;28;20029;-87
2022/09/27 12:26:22;;;;;;;1999.90;999.90;;;22.90;99.90;;;;;;5228932;28;20036;-84
2022/09/27 12:28:59;;;;;;;1999.90;999.90;;;22.80;99.90;;;;;;5230084;28;20031;-86
2022/09/27 12:31:42;;;;;;;1999.90;999.90;;;22.90;99.90;;;;;;5230036;28;20037;-86
2022/09/27 12:34:27;;;;;;;1999.90;999.90;;;23.00;99.90;;;;;;5228726;28;20028;-85
2022/09/27 12:37:20;;;;;;;1999.90;999.90;;;23.40;99.90;;;;;;5229874;28;20526;-86
2022/09/27 12:39:54;;;;;;;1999.90;999.90;;;23.50;99.90;;;;;;5229702;28;20052;-86
2022/09/27 12:42:30;;;;;;;1999.90;999.90;;;23.60;99.90;;;;;;5229772;28;20031;-86
2022/09/27 12:45:01;;;;;;;1999.90;999.90;;;23.80;99.90;;;;;;5229723;28;20017;-86
2022/09/27 12:47:54;;;;;;;1999.90;999.90;;;23.60;99.90;;;;;;5228305;28;20136;-87
2022/09/27 12:50:55;;;;;;;1999.90;999.90;;;23.30;99.90;;;;;;5229381;28;20063;-86
2022/09/27 12:54:08;;;;;;;1999.90;999.90;;;23.30;99.90;;;;;;5229671;28;20075;-86